Aérodrome :
LOGIN :

S'inscrire | Disclaimer

   EN    FR    IT 

 










Légende :    VFR   VFR Marginal   IFR   IFR Intensif   IFR Très Intensif
Visi : 
Plafond : 
>= 8 km
>= 3000ft
5 à 8 km
1000 à 3000 ft
1500m à 5 km
500 à 1000 ft
800 à 1500m
200 à 500 ft
< 800m
< 200 ft
Symboles :   Orages  Brouillard  Fortes neiges  Fortes précipitations  Vent > 20 kt
SIGMETs :   Divers  Orages  Givrage  Turbulence  Onde Orograph.  Cendres Volcan.






- Altitude de l'aérodrome : 140 ft


ESTL - Ljungbyhed

DERNIER METAR :
  • 250850Z 10003KT 050V140 CAVOK 22/12 Q1021

METARs EXPIRÉS :
  • 250820Z 20003KT 160V250 CAVOK 22/13 Q1021
  • 250750Z VRB01KT CAVOK 22/12 Q1021
  • 250720Z VRB02KT CAVOK 20/12 Q1021
  • 250650Z VRB03KT CAVOK 20/12 Q1021
  • 250620Z VRB02KT CAVOK 19/13 Q1021
  • 250550Z AUTO VRB02KT 9999 NCD 17/13 Q1021
  • 250520Z AUTO VRB02KT 9999 NCD 14/14 Q1021
  • 250450Z AUTO 09003KT 9999 NCD 12/12 Q1021
  • 250420Z AUTO 11002KT 9999 NCD 11/11 Q1021

TAF TAF ESTL
Valide du 25 à 09h jusqu'au 25 à 15h UTC


250813Z 2509/2515 12002KT 9999 SCT040



MET'MAP, la Météo Aéronautique d'un coup d'oeil ! - Copyright ORBIFLY Décembre 2007 - Disclaimer

ORBIFLY MET'MAP TEAM :

Programmation & Développement : Alexandra Zaïnal
Sur une idée originale de : Baudouin d'Aumeries
Soutien technique & logistique : Manuel Goepfert
Assistance : Marc-Olivier Méhu




SOURCES & CREDITS :

   NOAA